Port Allen, Louisiana
Current Conditions -  °F | °C
As of 11:53 AM on Monday 22 Dec 2014 (Local Time) from KBTR Reporting Station
Overcast Overcast  
Wind Chill: 69°   Ceiling: 900
Heat Index: 69°   Visibility: 7mi
Dew Point: 63°   Wind: 13mph
Humidity: 81%   Direction: 170°S
Pressure: 29.75"   Gusts: NA
Location:  30.46°N, 91.21°W
Report Text: KBTR 221753Z 17011KT 7SM OVC009 21/17 A2975 RMK AO2 SLP072 60000 T02060172 10206 20122 58025
Loading
Personal Weather Stations






























Interactive Weather Map New forecast layout! Learn more

10-Day Weather Forecast

Advertisements
Track Severe Weather on mobile